Yasi-Reta, Paraguay

1:55 AM PYT on September 02, 2014 (GMT -0400)
Liberador Gral D Jose De San M | Change Station
CLOSE
Current Station
Airport
Location: Posadas,
Elevation: 430 ft
Nearby Weather Stations

Elev 430 ft 27.39 °S, 55.97 °W | Updated 55 minutes ago

Clear
Clear
72 °F
Feels Like 72 °F
N
5
Wind Variable Wind from ESE

Today
High -- | Low -- °F
--% Chance of Precip.
Yesterday
High -- | Low -- °F
Precip. -- in
5:58 AM 5:33 PM
Waxing Crescent, 48% visible
Pressure 29.74 in
Visibility -9999.0 miles
Clouds
Dew Point 64 °F
Humidity 78%
Rainfall 0.00 in
Snow Depth Not available.
UV Not available.
Pollen Not available.
Air Quality Not available.
Flu Activity Not available.
METAR SARP 020500Z 11004KT CAVOK 22/18 Q1007

More Conditions Fewer Conditions

Pressure 29.74 in
Visibility -9999.0 miles
Clouds
Dew Point 64 °F
Humidity 78%
Rainfall 0.00 in
Snow Depth Not available.
UV Not available.
Pollen Not available.
Air Quality Not available.
Flu Activity Not available.
METAR SARP 020500Z 11004KT CAVOK 22/18 Q1007

More Conditions Fewer Conditions

10-Day Weather Forecast

Almanac

Astronomy

Sep. 02, 2014 Rise Set
Actual Time 5:58 AM PYT 5:33 PM PYT
Civil Twilight 5:34 AM PYT 5:56 PM PYT
Nautical Twilight 5:07 AM PYT 6:23 PM PYT
Astronomical Twilight 4:40 AM PYT 6:50 PM PYT
Moon 11:05 AM PYT No Moon Set
Length of Visible Light 12h 21m
Length of Day
11h 34m
Tomorrow will be 1m 33s longer.
Waxing Crescent, 48% of the Moon is Illuminated
Today
Waxing Crescent
Sep 2
First Quarter
Sep 8
Full
Sep 15
Last Quarter
Sep 24
New

Yesterday's Extremes

Country Highs Country Lows

Community

WunderPhotos

Upload Photos

1,749,579 photos uploaded!

WunderBlogs® & News

Nearby

Snow Depth

Not available.

Earthquake Activity

City Distance Mag. Time & Date
No recent earthquake activity has been reported nearby.
Minimum magnitude displayed is 2.5.

Coastal Water Temperatures

Place Temperature
No Stations Reporting

Nearby Weather Stations